Airfield :
LOGIN :

Register | Disclaimer

   EN    FR    IT 

 










Legend :    VFR   Marginal VFR   IFR   Intensive IFR   Very Intensive IFR
Visi :
Ceiling :
>= 8 km
>= 3000ft
5 to 8 km
1000 to 3000 ft
1500m to 5 km
500 to 1000 ft
800 to 1500m
200 to 500 ft
< 800m
< 200 ft
Symbols :   Thunderstorms  Fog  Heavy snow  Heavy precipitations  Wind > 20 kt
SIGMETs :     Misc.  Thunderstorms  Icing  Turbulence  Mountain Waves  Volcanic Ashes







- Airport Elevation : 436 ft
- IATA code : BTS


LZIB - Bratislava

CURRENT METAR :
  • 222130Z 26006KT CAVOK 07/04 Q1015

EXPIRED METARs :
  • 222100Z 26007KT CAVOK 08/04 Q1015
  • 222030Z 28005KT CAVOK 08/04 Q1015
  • 222000Z 26006KT CAVOK 08/04 Q1015
  • 221930Z 28006KT CAVOK 08/05 Q1015
  • 221900Z 29008KT CAVOK 08/05 Q1015 NOSIG

TAF TAF LZIB
Valid from the 22 at 12:00 until the 23 at 12:00 UTC


221100Z 2212/2312 31006KT 9999 FEW045 BKN060
TEMPO 2212/2216 33012KT BKN025
BECMG 2220/2222 09004KT 4000 BR SCT012
PROB30
TEMPO 2300/2307 0400 FG BKN004
BECMG 2308/2310 15012KT CAVOK
No reported NOTAMs for that airfield.



MET'MAP, your aeronautical weather chart ! - Copyright ORBIFLY December 2007 - Disclaimer

ORBIFLY MET'MAP TEAM :

Programming & Development : Alexandra Zaïnal
Concept & Development : Baudouin d'Aumeries
Co-Development & Prog : Marc-Olivier Méhu
Technical & hardware support : Manuel Goepfert

Contact : metmap@orbifly.com




SOURCES & CREDITS :

   NOAA